Terminal Aerodrome Forecast
Issued by NWS

Home | Current Version | Previous Version | Graphics & Text | Print | Product List | Glossary On
Versions: 1 2 3 4 5 6 7 8 9 10 11 12 13 14 15 16 17 18 19 20 21 22 23 24 25 26 27 28 29 30 31 32
000
FTUS43 KGRB 132300
TAFRHI
TAF
KRHI 132335Z 1400/1424 23006KT P6SM BKN050
     FM140200 18004KT P6SM SCT050 SCT070
     FM140600 21005KT P6SM SCT070 SCT100
     FM141000 22006KT P6SM SCT050 BKN100
     FM141500 22010G16KT P6SM SCT050 BKN080
     FM141900 24010G15KT P6SM VCSH BKN050=

USA.gov is the U.S. government's official web portal to all federal, state and local government web resources and services.